Terminal Aerodrome Forecast
Issued by NWS St Louis, MO

Home | Current Version | Previous Version | Graphics & Text | Print | Product List | Glossary On
Versions: 1 2 3 4 5 6 7 8 9 10 11 12 13 14 15 16 17 18 19 20 21 22 23 24 25 26 27 28 29 30 31 32 33 34
000
FTUS43 KLSX 240907 AAA
TAFSTL
TAF AMD
KSTL 240907Z 2409/2512 07007KT 3SM -RA BR OVC004
      TEMPO 2409/2412 1 1/2SM RA BR
     FM241500 09010KT 4SM BR OVC005
     FM242100 13011KT 4SM -SHRA BR VCTS OVC008CB
     FM250100 19010KT P6SM BKN012
     FM250400 25015G27KT P6SM BKN025=

USA.gov is the U.S. government's official web portal to all federal, state and local government web resources and services.